Matilda — 9HZM9 — position and weather

sailwx.info

Track history (hours):
 
Tides and Currents Weather Stations Pressure Air Temp Water Temp Dewpoint Dewpoint Depression Visibility Wind Speed Wind Dir Waves Ship Positions

Matilda

Last reported at 2018-Jun-04 04:39 UTC. Time now 2018-Jun-25 01:43 UTC.
Position N 01°22' E 103°17'.
Warning: this ship's position is 20 days out of date.

Length 250 m; draft 8.5 m.

Type: Tanker. MMSI: 249747000.

Date/timePositionNaut miles runAvg speedWind from/ knotsBaromVisibWave heightAir tempDewpointWater temp
2018-Jun-04 04:39N 01°22' E 103°17'210.4
2018-Jun-04 04:29N 01°21' E 103°18'510.9
2018-Jun-04 03:59N 01°17' E 103°21'510.6
2018-Jun-04 03:30N 01°14' E 103°26'611.5
2018-Jun-04 02:59N 01°13' E 103°32'511.3
2018-Jun-04 02:30N 01°12' E 103°37'611.8
2018-Jun-04 02:01N 01°10' E 103°42'4 8.8
2018-Jun-04 01:30N 01°10' E 103°47'510.5
2018-Jun-04 00:59N 01°12' E 103°52'611.6
2018-Jun-04 00:30N 01°14' E 103°57'3 6.3
2018-Jun-03 23:59N 01°16' E 103°59'1 1.6
2018-Jun-03 23:20N 01°17' E 103°59'0 0.0
2018-Jun-03 22:59N 01°17' E 103°59'0 0.0
2018-Jun-03 22:19N 01°17' E 103°59'0 0.0
2018-Jun-03 21:47N 01°17' E 103°59'0 0.0
2018-Jun-03 21:26N 01°17' E 103°59'0 0.0
2018-Jun-03 20:59N 01°17' E 103°59'0 0.0
2018-Jun-03 20:28N 01°17' E 103°59'0 0.0
2018-Jun-03 19:53N 01°17' E 103°59'0 0.1
2018-Jun-03 19:26N 01°17' E 103°59'0 0.1
2018-Jun-03 18:50N 01°17' E 103°59'0 0.1
2018-Jun-03 18:19N 01°17' E 103°59'0 0.2
2018-Jun-03 17:56N 01°17' E 103°59'0 0.1
2018-Jun-03 17:26N 01°17' E 103°59'0 0.0
2018-Jun-03 16:44N 01°17' E 103°59'0 0.0
2018-Jun-03 16:16N 01°17' E 103°59'0 0.0
2018-Jun-03 15:44N 01°17' E 103°59'0 0.0
2018-Jun-03 15:25N 01°17' E 103°59'0 0.0
2018-Jun-03 14:53N 01°17' E 103°59'0 0.0
2018-Jun-03 14:28N 01°17' E 103°59'0 0.0
2018-Jun-03 13:56N 01°17' E 103°59'0 0.0
2018-Jun-03 13:28N 01°17' E 103°59'0 0.0
2018-Jun-03 12:47N 01°17' E 103°59'0 0.0
2018-Jun-03 12:20N 01°17' E 103°59'0 0.2
2018-Jun-03 11:59N 01°17' E 103°59'0 0.2
2018-Jun-03 11:05N 01°17' E 103°59'0 0.7
2018-Jun-03 10:55N 01°17' E 103°59'0 0.3
2018-Jun-03 10:29N 01°17' E 103°59'0 0.1
2018-Jun-03 09:59N 01°17' E 103°59'0 0.1
2018-Jun-03 09:26N 01°17' E 103°59'0 0.1
2018-Jun-03 08:56N 01°17' E 103°59'0 0.0
2018-Jun-03 08:23N 01°17' E 103°59'0 0.0
2018-Jun-03 07:50N 01°17' E 103°59'0 0.1
2018-Jun-03 07:22N 01°17' E 103°59'0 0.2
2018-Jun-03 06:59N 01°17' E 103°59'0 0.4
2018-Jun-03 06:20N 01°17' E 103°59'1 3.5
2018-Jun-03 06:00N 01°16' E 103°59'1 2.2
2018-Jun-03 05:28N 01°16' E 103°60'3 6.1
2018-Jun-03 05:00N 01°16' E 104°03'5 9.1
2018-Jun-03 04:30N 01°17' E 104°07'5 9.1
2018-Jun-03 03:59N 01°17' E 104°12'510.2
2018-Jun-03 03:30N 01°18' E 104°17'5 9.8
2018-Jun-03 02:58N 01°20' E 104°21'610.4
2018-Jun-03 02:23N 01°24' E 104°26'410.1
2018-Jun-03 01:59N 01°27' E 104°29'  
2018-May-25 13:39N 31°01' E 122°25'310.1
2018-May-25 13:21N 31°01' E 122°22'512.3
2018-May-25 12:58N 31°02' E 122°17'4 7.7
2018-May-25 12:29N 31°02' E 122°12'4 7.2
2018-May-25 12:00N 31°03' E 122°08'611.6
2018-May-25 11:30N 31°05' E 122°02'611.3
2018-May-25 10:58N 31°07' E 121°56'612.4
2018-May-25 10:29N 31°11' E 121°50'714.0
2018-May-25 10:00N 31°16' E 121°45'611.6
2018-May-25 09:30N 31°21' E 121°40'1111.1
2018-May-25 08:30N 31°26' E 121°29'5 9.5
2018-May-25 08:00N 31°30' E 121°26'510.0
2018-May-25 07:27N 31°30' E 121°32'510.7
2018-May-25 06:58N 31°29' E 121°38'2 5.2
2018-May-25 06:31N 31°31' E 121°36'713.0
2018-May-25 06:00N 31°34' E 121°29'1 1.2
2018-May-25 05:26N 31°34' E 121°29'0 0.1
2018-May-25 04:56N 31°34' E 121°29'  
Track history (hours):
 
Tides and Currents Weather Stations Pressure Air Temp Water Temp Dewpoint Dewpoint Depression Visibility Wind Speed Wind Dir Waves Ship Positions

Matilda

Last reported at 2018-Jun-04 04:39 UTC. Time now 2018-Jun-25 01:43 UTC.
Position N 01°22' E 103°17'.
Warning: this ship's position is 20 days out of date.

Length 250 m; draft 8.5 m.

Type: Tanker. MMSI: 249747000.

Date/timePositionNaut miles runAvg speedWind from/ knotsBaromVisibWave heightAir tempDewpointWater temp
2018-Jun-04 04:39N 01°22' E 103°17'210.4
2018-Jun-04 04:29N 01°21' E 103°18'510.9
2018-Jun-04 03:59N 01°17' E 103°21'510.6
2018-Jun-04 03:30N 01°14' E 103°26'611.5
2018-Jun-04 02:59N 01°13' E 103°32'511.3
2018-Jun-04 02:30N 01°12' E 103°37'611.8
2018-Jun-04 02:01N 01°10' E 103°42'4 8.8
2018-Jun-04 01:30N 01°10' E 103°47'510.5
2018-Jun-04 00:59N 01°12' E 103°52'611.6
2018-Jun-04 00:30N 01°14' E 103°57'3 6.3
2018-Jun-03 23:59N 01°16' E 103°59'1 1.6
2018-Jun-03 23:20N 01°17' E 103°59'0 0.0
2018-Jun-03 22:59N 01°17' E 103°59'0 0.0
2018-Jun-03 22:19N 01°17' E 103°59'0 0.0
2018-Jun-03 21:47N 01°17' E 103°59'0 0.0
2018-Jun-03 21:26N 01°17' E 103°59'0 0.0
2018-Jun-03 20:59N 01°17' E 103°59'0 0.0
2018-Jun-03 20:28N 01°17' E 103°59'0 0.0
2018-Jun-03 19:53N 01°17' E 103°59'0 0.1
2018-Jun-03 19:26N 01°17' E 103°59'0 0.1
2018-Jun-03 18:50N 01°17' E 103°59'0 0.1
2018-Jun-03 18:19N 01°17' E 103°59'0 0.2
2018-Jun-03 17:56N 01°17' E 103°59'0 0.1
2018-Jun-03 17:26N 01°17' E 103°59'0 0.0
2018-Jun-03 16:44N 01°17' E 103°59'0 0.0
2018-Jun-03 16:16N 01°17' E 103°59'0 0.0
2018-Jun-03 15:44N 01°17' E 103°59'0 0.0
2018-Jun-03 15:25N 01°17' E 103°59'0 0.0
2018-Jun-03 14:53N 01°17' E 103°59'0 0.0
2018-Jun-03 14:28N 01°17' E 103°59'0 0.0
2018-Jun-03 13:56N 01°17' E 103°59'0 0.0
2018-Jun-03 13:28N 01°17' E 103°59'0 0.0
2018-Jun-03 12:47N 01°17' E 103°59'0 0.0
2018-Jun-03 12:20N 01°17' E 103°59'0 0.2
2018-Jun-03 11:59N 01°17' E 103°59'0 0.2
2018-Jun-03 11:05N 01°17' E 103°59'0 0.7
2018-Jun-03 10:55N 01°17' E 103°59'0 0.3
2018-Jun-03 10:29N 01°17' E 103°59'0 0.1
2018-Jun-03 09:59N 01°17' E 103°59'0 0.1
2018-Jun-03 09:26N 01°17' E 103°59'0 0.1
2018-Jun-03 08:56N 01°17' E 103°59'0 0.0
2018-Jun-03 08:23N 01°17' E 103°59'0 0.0
2018-Jun-03 07:50N 01°17' E 103°59'0 0.1
2018-Jun-03 07:22N 01°17' E 103°59'0 0.2
2018-Jun-03 06:59N 01°17' E 103°59'0 0.4
2018-Jun-03 06:20N 01°17' E 103°59'1 3.5
2018-Jun-03 06:00N 01°16' E 103°59'1 2.2
2018-Jun-03 05:28N 01°16' E 103°60'3 6.1
2018-Jun-03 05:00N 01°16' E 104°03'5 9.1
2018-Jun-03 04:30N 01°17' E 104°07'5 9.1
2018-Jun-03 03:59N 01°17' E 104°12'510.2
2018-Jun-03 03:30N 01°18' E 104°17'5 9.8
2018-Jun-03 02:58N 01°20' E 104°21'610.4
2018-Jun-03 02:23N 01°24' E 104°26'410.1
2018-Jun-03 01:59N 01°27' E 104°29'  
2018-May-25 13:39N 31°01' E 122°25'310.1
2018-May-25 13:21N 31°01' E 122°22'512.3
2018-May-25 12:58N 31°02' E 122°17'4 7.7
2018-May-25 12:29N 31°02' E 122°12'4 7.2
2018-May-25 12:00N 31°03' E 122°08'611.6
2018-May-25 11:30N 31°05' E 122°02'611.3
2018-May-25 10:58N 31°07' E 121°56'612.4
2018-May-25 10:29N 31°11' E 121°50'714.0
2018-May-25 10:00N 31°16' E 121°45'611.6
2018-May-25 09:30N 31°21' E 121°40'1111.1
2018-May-25 08:30N 31°26' E 121°29'5 9.5
2018-May-25 08:00N 31°30' E 121°26'510.0
2018-May-25 07:27N 31°30' E 121°32'510.7
2018-May-25 06:58N 31°29' E 121°38'2 5.2
2018-May-25 06:31N 31°31' E 121°36'713.0
2018-May-25 06:00N 31°34' E 121°29'1 1.2
2018-May-25 05:26N 31°34' E 121°29'0 0.1
2018-May-25 04:56N 31°34' E 121°29'  

Dump ship's entire track history